createdAt,value
2023-04-10T00:01:23.886Z,202.13
2023-04-10T00:06:28.380Z,205.40
2023-04-10T00:11:31.068Z,238.87
2023-04-10T00:16:33.911Z,266.00
2023-04-10T00:21:36.513Z,264.63
2023-04-10T00:26:39.116Z,268.83
2023-04-10T00:31:41.812Z,269.57
2023-04-10T00:36:45.472Z,268.80
2023-04-10T00:41:48.068Z,217.10
2023-04-10T00:46:51.643Z,219.10
2023-04-10T00:51:56.639Z,202.13
2023-04-10T00:57:01.398Z,237.37
2023-04-10T01:02:04.656Z,259.73
2023-04-10T01:07:29.894Z,266.07
2023-04-10T01:12:51.610Z,250.93
2023-04-10T01:18:14.718Z,197.63
2023-04-10T01:23:28.220Z,234.27
2023-04-10T01:28:54.670Z,226.90
2023-04-10T01:34:08.568Z,196.83
2023-04-10T01:39:12.350Z,261.03
2023-04-10T01:44:16.408Z,267.83
2023-04-10T01:49:20.807Z,204.47
2023-04-10T01:54:24.333Z,196.23
2023-04-10T01:59:27.639Z,194.97
2023-04-10T02:04:30.815Z,225.13
2023-04-10T02:09:52.014Z,254.37
2023-04-10T02:14:56.524Z,197.97
2023-04-10T02:20:00.226Z,205.40
2023-04-10T02:25:06.377Z,245.10
2023-04-10T02:30:09.555Z,256.73
2023-04-10T02:35:12.251Z,261.37
2023-04-10T02:40:15.010Z,258.43
2023-04-10T02:45:33.408Z,234.97
2023-04-10T02:50:36.101Z,255.70
2023-04-10T02:55:38.834Z,258.90
2023-04-10T03:00:41.896Z,260.30
2023-04-10T03:05:52.064Z,195.73
2023-04-10T03:11:00.660Z,223.73
2023-04-10T03:16:04.731Z,249.43
2023-04-10T03:21:07.721Z,254.80
2023-04-10T03:26:10.360Z,258.03
2023-04-10T03:31:14.425Z,263.20
2023-04-10T03:36:19.624Z,190.23
2023-04-10T03:41:25.650Z,190.70
2023-04-10T03:46:28.676Z,197.80
2023-04-10T03:51:31.810Z,232.30
2023-04-10T03:56:34.486Z,250.83
2023-04-10T04:01:37.534Z,251.67
2023-04-10T04:06:45.323Z,266.50
2023-04-10T04:12:05.936Z,250.80
2023-04-10T04:17:25.227Z,193.33
2023-04-10T04:22:32.713Z,238.97
2023-04-10T04:27:42.628Z,255.80
2023-04-10T04:33:03.609Z,242.73
2023-04-10T04:38:26.676Z,195.23
2023-04-10T04:43:44.785Z,256.47
2023-04-10T04:49:00.231Z,203.97
2023-04-10T04:54:10.721Z,250.70
2023-04-10T04:59:25.423Z,190.90
2023-04-10T05:05:00.606Z,198.87
2023-04-10T05:10:17.382Z,251.93
2023-04-10T05:15:45.598Z,264.33
2023-04-10T05:21:12.878Z,263.03
2023-04-10T05:26:47.947Z,256.80
2023-04-10T05:32:05.837Z,256.23
2023-04-10T05:37:34.592Z,251.27
2023-04-10T05:42:58.055Z,201.60
2023-04-10T05:48:07.638Z,261.53
2023-04-10T05:53:22.148Z,212.03
2023-04-10T05:58:54.303Z,204.70
2023-04-10T06:04:14.656Z,267.73
2023-04-10T06:09:17.770Z,262.57
2023-04-10T06:14:21.241Z,222.70
2023-04-10T06:19:24.042Z,208.90
2023-04-10T06:24:27.102Z,206.20
2023-04-10T06:29:31.046Z,217.40
2023-04-10T06:34:34.182Z,250.87
2023-04-10T06:39:40.478Z,270.93
2023-04-10T06:44:44.581Z,271.37
2023-04-10T06:49:47.088Z,276.07
2023-04-10T06:54:49.734Z,247.70
2023-04-10T06:59:52.532Z,204.50
2023-04-10T07:04:57.086Z,205.27
2023-04-10T07:10:00.639Z,210.37
2023-04-10T07:15:03.388Z,241.00
2023-04-10T07:20:06.769Z,272.43
2023-04-10T07:25:09.857Z,284.10
2023-04-10T07:30:13.724Z,291.83
2023-04-10T07:35:17.139Z,296.60
2023-04-10T07:40:19.747Z,271.83
2023-04-10T07:45:22.591Z,236.87
2023-04-10T07:50:25.232Z,233.67
2023-04-10T07:55:28.129Z,232.70
2023-04-10T08:00:30.943Z,239.37
2023-04-10T08:05:33.856Z,269.50
2023-04-10T08:10:39.758Z,305.30
2023-04-10T08:15:42.482Z,317.97
2023-04-10T08:20:45.352Z,318.37
2023-04-10T08:25:48.028Z,333.23
2023-04-10T08:30:50.727Z,260.70
2023-04-10T08:35:53.497Z,239.17
2023-04-10T08:40:56.301Z,235.70
2023-04-10T08:46:02.830Z,252.60
2023-04-10T08:51:10.702Z,304.80
2023-04-10T08:56:18.152Z,332.73
2023-04-10T09:01:23.061Z,265.53
2023-04-10T09:06:26.084Z,244.00
2023-04-10T09:11:56.749Z,245.47
2023-04-10T09:17:19.056Z,249.90
2023-04-10T09:22:36.525Z,263.03
2023-04-10T09:27:40.360Z,355.03
2023-04-10T09:32:45.856Z,366.80
2023-04-10T09:37:48.454Z,358.97
2023-04-10T09:42:51.420Z,279.97
2023-04-10T09:48:29.820Z,262.93
2023-04-10T09:53:50.350Z,357.17
2023-04-10T09:58:56.954Z,308.87
2023-04-10T10:04:06.774Z,314.17
2023-04-10T10:09:11.450Z,431.77
2023-04-10T10:14:29.621Z,339.77
2023-04-10T10:19:38.907Z,358.73
2023-04-10T10:24:57.109Z,447.13
2023-04-10T10:30:30.370Z,435.83
2023-04-10T10:35:38.030Z,371.30
2023-04-10T10:40:54.991Z,453.60
2023-04-10T10:46:02.255Z,337.80
2023-04-10T10:51:05.058Z,419.60
2023-04-10T10:56:28.582Z,440.17
2023-04-10T11:01:31.974Z,328.70
2023-04-10T11:06:53.435Z,388.17
2023-04-10T11:11:59.572Z,301.90
2023-04-10T11:17:02.373Z,332.53
2023-04-10T11:22:08.332Z,419.23
2023-04-10T11:27:40.688Z,471.87
2023-04-10T11:32:45.455Z,483.00
2023-04-10T11:37:48.149Z,508.53
2023-04-10T11:42:50.709Z,466.00
2023-04-10T11:47:54.571Z,760.53
2023-04-10T11:52:57.500Z,794.83
2023-04-10T11:58:00.808Z,524.00
2023-04-10T12:03:03.675Z,564.40
2023-04-10T12:08:06.944Z,571.90
2023-04-10T12:13:26.152Z,558.33
2023-04-10T12:18:30.896Z,440.83
2023-04-10T12:23:34.133Z,455.70
2023-04-10T12:28:38.148Z,492.57
2023-04-10T12:33:44.095Z,496.37
2023-04-10T12:38:46.899Z,489.80
2023-04-10T12:43:49.893Z,453.73
2023-04-10T12:48:53.165Z,349.40
2023-04-10T12:53:56.008Z,294.20
2023-04-10T12:59:08.301Z,283.87
2023-04-10T13:04:11.483Z,405.80
2023-04-10T13:09:15.209Z,410.13
2023-04-10T13:14:18.030Z,409.73
2023-04-10T13:19:20.832Z,385.53
2023-04-10T13:24:23.686Z,298.13
2023-04-10T13:29:26.609Z,315.47
2023-04-10T13:34:29.431Z,305.33
2023-04-10T13:39:32.689Z,296.20
2023-04-10T13:44:35.281Z,352.17
2023-04-10T13:49:38.356Z,403.10
2023-04-10T13:54:41.255Z,414.83
2023-04-10T13:59:43.905Z,414.73
2023-04-10T14:04:47.670Z,426.63
2023-04-10T14:09:50.410Z,408.63
2023-04-10T14:14:53.163Z,333.13
2023-04-10T14:19:55.993Z,287.97
2023-04-10T14:25:09.319Z,289.93
2023-04-10T14:30:15.626Z,416.87
2023-04-10T14:35:18.302Z,406.10
2023-04-10T14:40:21.013Z,377.53
2023-04-10T14:45:23.642Z,300.13
2023-04-10T14:50:26.340Z,299.73
2023-04-10T14:55:32.434Z,284.33
2023-04-10T15:00:35.823Z,364.40
2023-04-10T15:05:38.562Z,401.87
2023-04-10T15:10:42.484Z,401.47
2023-04-10T15:15:45.866Z,418.00
2023-04-10T15:20:48.476Z,406.87
2023-04-10T15:25:51.438Z,353.83
2023-04-10T15:35:58.072Z,289.97
2023-04-10T15:41:01.182Z,284.33
2023-04-10T15:46:04.378Z,321.67
2023-04-10T15:51:07.801Z,373.47
2023-04-10T15:56:10.493Z,398.30
2023-04-10T16:01:13.249Z,382.43
2023-04-10T16:06:16.558Z,385.07
2023-04-10T16:11:19.526Z,394.00
2023-04-10T16:16:22.485Z,297.30
2023-04-10T16:21:25.127Z,258.37
2023-04-10T16:26:27.799Z,260.00
2023-04-10T16:31:33.522Z,266.00
2023-04-10T16:36:36.263Z,371.03
2023-04-10T16:41:39.000Z,374.83
2023-04-10T16:46:41.688Z,359.67
2023-04-10T16:51:44.373Z,359.17
2023-04-10T16:56:47.138Z,362.87
2023-04-10T17:01:51.633Z,376.90
2023-04-10T17:06:54.256Z,266.03
2023-04-10T17:11:57.939Z,263.73
2023-04-10T17:17:01.046Z,265.47
2023-04-10T17:22:03.738Z,270.83
2023-04-10T17:27:06.419Z,334.23
2023-04-10T17:32:09.447Z,352.30
2023-04-10T17:37:12.361Z,342.30
2023-04-10T17:42:14.947Z,364.37
2023-04-10T17:47:17.676Z,370.57
2023-04-10T17:52:20.368Z,352.27
2023-04-10T17:57:23.093Z,271.87
2023-04-10T18:02:25.943Z,254.63
2023-04-10T18:07:28.934Z,254.63
2023-04-10T18:12:31.957Z,255.17
2023-04-10T18:17:35.534Z,275.77
2023-04-10T18:22:39.165Z,349.83
2023-04-10T18:27:55.307Z,342.63
2023-04-10T18:33:11.056Z,335.83
2023-04-10T18:38:14.358Z,353.07
2023-04-10T18:43:17.012Z,345.87
2023-04-10T18:48:19.646Z,359.43
2023-04-10T18:53:22.745Z,283.37
2023-04-10T18:58:25.551Z,253.70
2023-04-10T19:03:28.611Z,250.10
2023-04-10T19:08:31.572Z,248.53
2023-04-10T19:13:34.874Z,265.73
2023-04-10T19:18:37.468Z,329.60
2023-04-10T19:23:40.176Z,335.20
2023-04-10T19:28:42.795Z,335.50
2023-04-10T19:33:45.439Z,328.23
2023-04-10T19:38:51.246Z,334.43
2023-04-10T19:43:54.350Z,260.93
2023-04-10T19:48:57.181Z,247.37
2023-04-10T19:53:59.879Z,246.10
2023-04-10T19:59:02.854Z,253.43
2023-04-10T20:04:05.705Z,277.67
2023-04-10T20:09:08.443Z,321.53
2023-04-10T20:14:11.433Z,326.37
2023-04-10T20:19:14.109Z,339.00
2023-04-10T20:24:16.753Z,334.07
2023-04-10T20:29:19.422Z,322.40
2023-04-10T20:34:22.216Z,278.93
2023-04-10T20:39:25.050Z,246.93
2023-04-10T20:44:27.705Z,241.57
2023-04-10T20:49:30.652Z,247.43
2023-04-10T20:54:34.048Z,246.30
2023-04-10T20:59:36.893Z,288.50
2023-04-10T21:04:39.447Z,303.43
2023-04-10T21:09:42.065Z,308.20
2023-04-10T21:14:44.744Z,304.33
2023-04-10T21:19:47.462Z,327.90
2023-04-10T21:24:50.110Z,318.03
2023-04-10T21:29:52.897Z,264.03
2023-04-10T21:34:55.477Z,241.50
2023-04-10T21:39:58.262Z,236.40
2023-04-10T21:45:01.557Z,248.20
2023-04-10T21:50:04.487Z,252.77
2023-04-10T21:55:07.983Z,292.90
2023-04-10T22:00:12.587Z,314.13
2023-04-10T22:05:15.228Z,325.97
2023-04-10T22:10:17.973Z,322.97
2023-04-10T22:15:20.753Z,318.03
2023-04-10T22:20:23.311Z,259.13
2023-04-10T22:25:26.100Z,242.77
2023-04-10T22:30:29.004Z,238.30
2023-04-10T22:35:32.893Z,238.03
2023-04-10T22:40:35.930Z,271.57
2023-04-10T22:45:39.862Z,292.87
2023-04-10T22:50:42.521Z,311.60
2023-04-10T22:55:45.134Z,316.33
2023-04-10T23:00:47.665Z,305.13
2023-04-10T23:05:50.841Z,326.77
2023-04-10T23:10:56.629Z,251.77
2023-04-10T23:15:59.375Z,233.23
2023-04-10T23:21:06.650Z,233.43
2023-04-10T23:26:11.641Z,297.50
2023-04-10T23:31:14.657Z,325.30
2023-04-10T23:36:17.339Z,325.97
2023-04-10T23:41:20.417Z,318.50
2023-04-10T23:46:23.029Z,262.30
2023-04-10T23:51:27.222Z,234.07
2023-04-10T23:56:31.364Z,234.60
